createdAt,value
2023-09-24T00:00:14.662Z,6.72
2023-09-24T00:02:41.598Z,8.02
2023-09-24T00:05:12.969Z,5.72
2023-09-24T00:07:39.702Z,6.63
2023-09-24T00:10:09.752Z,7.03
2023-09-24T00:12:36.846Z,6.28
2023-09-24T00:15:03.999Z,6.97
2023-09-24T00:17:33.705Z,6.07
2023-09-24T00:20:00.534Z,7.47
2023-09-24T00:22:32.482Z,7.30
2023-09-24T00:24:59.725Z,7.50
2023-09-24T00:27:28.522Z,6.43
2023-09-24T00:29:55.134Z,5.90
2023-09-24T00:32:21.849Z,7.40
2023-09-24T00:34:48.490Z,6.95
2023-09-24T00:37:15.120Z,8.38
2023-09-24T00:39:41.734Z,6.20
2023-09-24T00:42:10.748Z,7.57
2023-09-24T00:44:39.858Z,6.00
2023-09-24T00:47:11.055Z,7.18
2023-09-24T00:49:37.767Z,7.13
2023-09-24T00:52:04.719Z,8.63
2023-09-24T00:54:32.407Z,9.23
2023-09-24T00:57:02.297Z,7.30
2023-09-24T00:59:32.164Z,7.25
2023-09-24T01:01:59.740Z,5.90
2023-09-24T01:04:29.090Z,6.32
2023-09-24T01:06:59.059Z,9.75
2023-09-24T01:09:30.590Z,7.67
2023-09-24T01:12:04.432Z,7.40
2023-09-24T01:14:31.174Z,6.65
2023-09-24T01:17:01.309Z,6.40
2023-09-24T01:19:29.140Z,6.90
2023-09-24T01:22:01.682Z,7.87
2023-09-24T01:24:32.195Z,9.10
2023-09-24T01:27:03.806Z,6.90
2023-09-24T01:29:30.552Z,6.63
2023-09-24T01:32:01.983Z,8.32
2023-09-24T01:34:28.781Z,6.33
2023-09-24T01:36:55.484Z,10.68
2023-09-24T01:39:32.470Z,7.90
2023-09-24T01:41:59.258Z,6.30
2023-09-24T01:44:29.410Z,9.38
2023-09-24T01:46:57.005Z,9.90
2023-09-24T01:49:23.671Z,10.05
2023-09-24T01:51:50.445Z,6.78
2023-09-24T01:54:21.021Z,7.70
2023-09-24T01:56:55.521Z,9.63
2023-09-24T01:59:25.247Z,10.07
2023-09-24T02:01:53.562Z,8.45
2023-09-24T02:04:20.187Z,8.60
2023-09-24T02:06:49.765Z,9.32
2023-09-24T02:09:17.690Z,7.70
2023-09-24T02:11:47.231Z,5.83
2023-09-24T02:14:13.851Z,7.28
2023-09-24T02:16:44.242Z,7.97
2023-09-24T02:19:15.582Z,7.07
2023-09-24T02:21:46.895Z,10.73
2023-09-24T02:24:15.840Z,7.57
2023-09-24T02:26:45.930Z,7.93
2023-09-24T02:29:20.179Z,5.97
2023-09-24T02:31:46.979Z,6.85
2023-09-24T02:34:13.649Z,6.80
2023-09-24T02:36:42.521Z,8.00
2023-09-24T02:39:09.163Z,7.05
2023-09-24T02:41:38.161Z,7.18
2023-09-24T02:44:05.140Z,7.70
2023-09-24T02:46:31.802Z,6.13
2023-09-24T02:48:58.447Z,6.10
2023-09-24T02:51:25.060Z,7.40
2023-09-24T02:53:54.015Z,5.80
2023-09-24T02:56:20.690Z,7.43
2023-09-24T02:58:47.336Z,8.23
2023-09-24T03:01:17.423Z,11.30
2023-09-24T03:03:44.213Z,7.90
2023-09-24T03:06:11.020Z,7.43
2023-09-24T03:08:37.751Z,10.02
2023-09-24T03:11:15.426Z,7.45
2023-09-24T03:13:42.732Z,7.77
2023-09-24T03:16:10.207Z,8.27
2023-09-24T03:18:37.053Z,7.43
2023-09-24T03:21:07.601Z,7.88
2023-09-24T03:23:37.870Z,6.32
2023-09-24T03:26:07.681Z,6.43
2023-09-24T03:28:34.283Z,7.35
2023-09-24T03:31:01.032Z,7.68
2023-09-24T03:33:29.372Z,8.95
2023-09-24T03:35:58.376Z,7.15
2023-09-24T03:38:25.079Z,7.00
2023-09-24T03:40:55.240Z,8.40
2023-09-24T03:43:23.981Z,6.47
2023-09-24T03:45:50.633Z,8.68
2023-09-24T03:48:19.638Z,8.88
2023-09-24T03:50:48.561Z,8.07
2023-09-24T03:53:16.790Z,9.25
2023-09-24T03:55:49.251Z,7.32
2023-09-24T03:58:19.138Z,6.50
2023-09-24T04:00:45.955Z,7.82
2023-09-24T04:03:15.112Z,6.73
2023-09-24T04:05:44.170Z,9.73
2023-09-24T04:08:13.060Z,6.95
2023-09-24T04:10:42.590Z,8.30
2023-09-24T04:13:09.341Z,7.13
2023-09-24T04:15:35.949Z,8.87
2023-09-24T04:18:02.982Z,7.15
2023-09-24T04:20:32.713Z,6.70
2023-09-24T04:22:59.377Z,7.90
2023-09-24T04:25:28.035Z,7.88
2023-09-24T04:27:57.508Z,8.63
2023-09-24T04:30:25.699Z,8.80
2023-09-24T04:33:03.752Z,6.38
2023-09-24T04:35:30.510Z,8.48
2023-09-24T04:37:57.156Z,7.20
2023-09-24T04:40:24.411Z,7.70
2023-09-24T04:42:52.421Z,9.18
2023-09-24T04:45:20.161Z,6.57
2023-09-24T04:47:50.139Z,7.10
2023-09-24T04:50:17.405Z,7.33
2023-09-24T04:52:46.834Z,8.23
2023-09-24T04:55:16.089Z,6.82
2023-09-24T04:57:45.762Z,7.20
2023-09-24T05:00:14.490Z,6.85
2023-09-24T05:02:41.254Z,9.25
2023-09-24T05:05:08.487Z,6.07
2023-09-24T05:07:35.249Z,10.90
2023-09-24T05:10:01.868Z,7.00
2023-09-24T05:12:33.236Z,8.82
2023-09-24T05:14:59.917Z,7.07
2023-09-24T05:17:26.661Z,6.63
2023-09-24T05:19:53.370Z,9.85
2023-09-24T05:22:20.100Z,7.43
2023-09-24T05:24:48.946Z,7.22
2023-09-24T05:27:20.616Z,8.02
2023-09-24T05:29:48.119Z,7.80
2023-09-24T05:32:17.004Z,8.68
2023-09-24T05:34:45.878Z,7.85
2023-09-24T05:37:12.529Z,7.10
2023-09-24T05:39:39.159Z,10.68
2023-09-24T05:42:06.301Z,8.70
2023-09-24T05:44:35.513Z,9.10
2023-09-24T05:47:08.130Z,7.28
2023-09-24T05:49:37.052Z,7.53
2023-09-24T05:52:06.061Z,7.88
2023-09-24T05:54:34.957Z,7.37
2023-09-24T05:57:02.991Z,7.00
2023-09-24T05:59:29.734Z,9.25
2023-09-24T06:01:56.434Z,8.35
2023-09-24T06:04:23.364Z,7.88
2023-09-24T06:06:57.402Z,6.73
2023-09-24T06:09:29.511Z,7.07
2023-09-24T06:11:58.628Z,6.55
2023-09-24T06:14:25.360Z,7.60
2023-09-24T06:16:52.059Z,9.95
2023-09-24T06:19:18.805Z,7.20
2023-09-24T06:21:45.455Z,8.93
2023-09-24T06:24:14.728Z,8.40
2023-09-24T06:26:42.065Z,10.88
2023-09-24T06:29:12.170Z,15.15
2023-09-24T06:31:39.877Z,12.23
2023-09-24T06:34:07.182Z,13.23
2023-09-24T06:36:39.248Z,12.93
2023-09-24T06:39:09.899Z,11.73
2023-09-24T06:41:38.690Z,8.25
2023-09-24T06:44:05.540Z,11.20
2023-09-24T06:46:32.242Z,14.32
2023-09-24T06:48:58.933Z,12.50
2023-09-24T06:51:25.644Z,12.80
2023-09-24T06:53:57.261Z,13.93
2023-09-24T06:56:27.024Z,10.43
2023-09-24T06:58:53.871Z,12.95
2023-09-24T07:01:23.487Z,13.20
2023-09-24T07:03:50.707Z,11.00
2023-09-24T07:06:18.769Z,10.85
2023-09-24T07:08:47.714Z,17.23
2023-09-24T07:11:29.130Z,12.77
2023-09-24T07:13:56.587Z,11.90
2023-09-24T07:16:28.778Z,11.10
2023-09-24T07:18:56.125Z,14.40
2023-09-24T07:21:34.530Z,10.67
2023-09-24T07:24:05.610Z,13.15
2023-09-24T07:26:32.962Z,10.15
2023-09-24T07:29:01.375Z,12.65
2023-09-24T07:31:30.539Z,14.13
2023-09-24T07:33:59.618Z,13.20
2023-09-24T07:38:59.151Z,12.30
2023-09-24T07:41:25.817Z,12.82
2023-09-24T07:43:52.516Z,14.40
2023-09-24T07:46:20.794Z,11.43
2023-09-24T07:48:49.113Z,12.77
2023-09-24T07:51:19.586Z,15.32
2023-09-24T07:53:47.913Z,12.45
2023-09-24T07:56:17.561Z,13.15
2023-09-24T07:58:44.301Z,11.73
2023-09-24T08:01:20.186Z,15.02
2023-09-24T08:03:50.489Z,14.80
2023-09-24T08:06:19.692Z,16.15
2023-09-24T08:08:53.190Z,17.52
2023-09-24T08:11:24.830Z,9.77
2023-09-24T08:13:54.215Z,13.13
2023-09-24T08:16:26.505Z,13.90
2023-09-24T08:18:53.321Z,15.57
2023-09-24T08:21:20.693Z,19.70
2023-09-24T08:23:48.167Z,15.47
2023-09-24T08:26:17.593Z,21.67
2023-09-24T08:28:44.801Z,10.68
2023-09-24T08:31:12.273Z,13.02
2023-09-24T08:33:39.226Z,13.85
2023-09-24T08:36:10.411Z,12.03
2023-09-24T08:38:39.642Z,12.68
2023-09-24T08:41:13.368Z,15.57
2023-09-24T08:43:45.881Z,18.13
2023-09-24T08:46:15.225Z,9.50
2023-09-24T08:48:42.391Z,13.13
2023-09-24T08:51:10.940Z,17.25
2023-09-24T08:53:41.952Z,16.67
2023-09-24T08:56:12.131Z,15.68
2023-09-24T08:58:40.110Z,17.10
2023-09-24T09:01:10.853Z,16.47
2023-09-24T09:03:38.266Z,12.48
2023-09-24T09:06:05.272Z,18.58
2023-09-24T09:08:58.175Z,17.02
2023-09-24T09:11:40.285Z,11.55
2023-09-24T09:14:07.491Z,14.33
2023-09-24T09:16:35.076Z,15.48
2023-09-24T09:19:02.999Z,20.85
2023-09-24T09:21:31.006Z,16.77
2023-09-24T09:24:02.757Z,15.75
2023-09-24T09:26:34.774Z,15.60
2023-09-24T09:29:05.316Z,18.52
2023-09-24T09:31:32.134Z,13.43
2023-09-24T09:34:07.931Z,13.95
2023-09-24T09:36:35.928Z,18.95
2023-09-24T09:39:04.350Z,18.73
2023-09-24T09:41:34.506Z,18.63
2023-09-24T09:44:08.747Z,15.13
2023-09-24T09:46:36.603Z,11.73
2023-09-24T09:49:08.982Z,12.43
2023-09-24T09:51:53.735Z,14.27
2023-09-24T09:54:22.716Z,15.32
2023-09-24T09:56:50.283Z,22.20
2023-09-24T09:59:17.892Z,18.70
2023-09-24T10:01:44.750Z,16.10
2023-09-24T10:04:15.110Z,16.13
2023-09-24T10:06:42.233Z,13.57
2023-09-24T10:09:27.988Z,14.07
2023-09-24T10:12:00.122Z,10.95
2023-09-24T10:14:34.018Z,14.90
2023-09-24T10:17:26.686Z,12.43
2023-09-24T10:20:07.889Z,11.95
2023-09-24T10:22:41.867Z,14.27
2023-09-24T10:25:33.612Z,10.48
2023-09-24T10:28:10.240Z,11.45
2023-09-24T10:31:06.846Z,13.17
2023-09-24T10:33:52.429Z,10.27
2023-09-24T10:36:27.478Z,11.38
2023-09-24T10:39:14.009Z,12.68
2023-09-24T10:42:09.955Z,12.50
2023-09-24T10:44:37.349Z,13.27
2023-09-24T10:47:29.130Z,10.43
2023-09-24T10:50:13.955Z,9.93
2023-09-24T10:52:56.717Z,12.68
2023-09-24T10:55:32.268Z,9.07
2023-09-24T10:58:03.936Z,12.57
2023-09-24T11:00:32.576Z,17.58
2023-09-24T11:03:09.641Z,17.05
2023-09-24T11:05:42.436Z,12.48
2023-09-24T11:08:10.764Z,14.23
2023-09-24T11:10:38.201Z,16.37
2023-09-24T11:13:08.601Z,14.43
2023-09-24T11:15:38.188Z,14.23
2023-09-24T11:18:06.455Z,14.65
2023-09-24T11:20:35.996Z,11.05
2023-09-24T11:23:10.071Z,12.13
2023-09-24T11:25:37.415Z,12.07
2023-09-24T11:28:07.400Z,12.13
2023-09-24T11:30:52.210Z,10.07
2023-09-24T11:33:49.743Z,12.68
2023-09-24T11:36:21.882Z,11.93
2023-09-24T11:38:49.046Z,11.55
2023-09-24T11:41:15.980Z,12.63
2023-09-24T11:43:46.071Z,10.90
2023-09-24T11:46:23.579Z,14.30
2023-09-24T11:48:56.279Z,15.70
2023-09-24T11:51:23.594Z,19.35
2023-09-24T11:53:52.852Z,13.13
2023-09-24T11:56:19.773Z,14.90
2023-09-24T11:58:46.855Z,16.00
2023-09-24T12:01:15.183Z,13.13
2023-09-24T12:03:44.039Z,16.52
2023-09-24T12:10:22.834Z,12.48
2023-09-24T12:12:51.165Z,11.30
2023-09-24T12:15:25.132Z,12.00
2023-09-24T12:17:56.408Z,11.05
2023-09-24T12:20:23.986Z,11.40
2023-09-24T12:22:50.909Z,10.32
2023-09-24T12:25:17.537Z,9.15
2023-09-24T12:27:49.065Z,10.70
2023-09-24T12:30:15.827Z,11.07
2023-09-24T12:32:45.336Z,13.45
2023-09-24T12:35:14.304Z,12.50
2023-09-24T12:37:42.120Z,14.48
2023-09-24T12:40:15.034Z,13.33
2023-09-24T12:42:43.857Z,9.93
2023-09-24T12:45:14.395Z,11.52
2023-09-24T12:47:44.145Z,12.02
2023-09-24T12:50:12.806Z,10.43
2023-09-24T12:52:48.505Z,15.33
2023-09-24T12:55:18.266Z,11.52
2023-09-24T12:57:46.505Z,11.90
2023-09-24T13:00:17.991Z,10.55
2023-09-24T13:02:47.369Z,14.05
2023-09-24T13:05:16.924Z,12.87
2023-09-24T13:07:47.789Z,10.95
2023-09-24T13:10:17.741Z,14.35
2023-09-24T13:12:45.836Z,12.68
2023-09-24T13:15:17.572Z,10.82
2023-09-24T13:17:44.393Z,8.03
2023-09-24T13:20:11.984Z,14.23
2023-09-24T13:22:39.850Z,8.13
2023-09-24T13:25:07.116Z,10.38
2023-09-24T13:27:34.854Z,12.00
2023-09-24T13:30:04.167Z,9.03
2023-09-24T13:32:32.881Z,14.07
2023-09-24T13:35:05.429Z,10.80
2023-09-24T13:37:34.931Z,10.68
2023-09-24T13:40:01.750Z,11.88
2023-09-24T13:42:34.391Z,13.23
2023-09-24T13:45:01.124Z,12.13
2023-09-24T13:47:27.937Z,11.55
2023-09-24T13:49:54.762Z,13.98
2023-09-24T13:52:23.876Z,9.15
2023-09-24T13:54:50.545Z,8.23
2023-09-24T13:57:17.351Z,8.93
2023-09-24T13:59:44.216Z,6.80
2023-09-24T14:02:11.120Z,9.88
2023-09-24T14:04:40.160Z,8.73
2023-09-24T14:07:06.977Z,12.30
2023-09-24T14:09:52.319Z,8.52
2023-09-24T14:12:23.288Z,7.40
2023-09-24T14:14:55.978Z,8.55
2023-09-24T14:17:22.925Z,11.30
2023-09-24T14:19:49.819Z,14.73
2023-09-24T14:22:16.651Z,16.38
2023-09-24T14:24:43.347Z,7.70
2023-09-24T14:27:12.498Z,9.35
2023-09-24T14:29:39.311Z,10.90
2023-09-24T14:32:06.116Z,10.27
2023-09-24T14:34:33.202Z,7.43
2023-09-24T14:36:59.939Z,9.20
2023-09-24T14:39:26.732Z,7.45
2023-09-24T14:41:53.459Z,8.65
2023-09-24T14:44:22.376Z,8.87
2023-09-24T14:46:51.387Z,8.43
2023-09-24T14:49:21.000Z,10.18
2023-09-24T14:51:50.308Z,7.57
2023-09-24T14:54:17.053Z,7.88
2023-09-24T14:56:43.807Z,8.30
2023-09-24T14:59:11.224Z,6.47
2023-09-24T15:01:40.759Z,7.35
2023-09-24T15:04:09.913Z,8.30
2023-09-24T15:06:36.718Z,6.85
2023-09-24T15:09:06.555Z,9.97
2023-09-24T15:11:34.718Z,7.50
2023-09-24T15:14:01.498Z,9.52
2023-09-24T15:16:30.739Z,6.25
2023-09-24T15:19:02.149Z,8.05
2023-09-24T15:21:28.907Z,9.67
2023-09-24T15:23:55.794Z,5.78
2023-09-24T15:26:22.473Z,6.63
2023-09-24T15:28:51.992Z,6.30
2023-09-24T15:31:20.151Z,6.28
2023-09-24T15:33:47.085Z,7.00
2023-09-24T15:36:17.241Z,6.38
2023-09-24T15:38:43.936Z,9.82
2023-09-24T15:41:10.596Z,7.00
2023-09-24T15:43:39.678Z,7.55
2023-09-24T15:46:13.216Z,5.07
2023-09-24T15:48:39.988Z,4.75
2023-09-24T15:51:09.076Z,6.60
2023-09-24T15:53:35.827Z,6.10
2023-09-24T15:56:02.583Z,9.68
2023-09-24T15:58:29.252Z,8.03
2023-09-24T16:00:55.925Z,7.57
2023-09-24T16:03:22.716Z,7.05
2023-09-24T16:05:51.772Z,6.75
2023-09-24T16:08:21.112Z,7.15
2023-09-24T16:10:50.539Z,5.40
2023-09-24T16:13:17.297Z,7.63
2023-09-24T16:15:48.317Z,12.68
2023-09-24T16:18:15.380Z,7.75
2023-09-24T16:20:47.021Z,10.45
2023-09-24T16:23:13.760Z,6.90
2023-09-24T16:25:40.378Z,6.60
2023-09-24T16:28:07.044Z,12.75
2023-09-24T16:30:33.935Z,35.85
2023-09-24T16:33:00.724Z,207.13
2023-09-24T16:35:29.464Z,264.63
2023-09-24T16:37:56.124Z,232.77
2023-09-24T16:40:24.953Z,184.40
2023-09-24T16:42:55.567Z,142.25
2023-09-24T16:45:22.477Z,132.57
2023-09-24T16:47:49.315Z,99.33
2023-09-24T16:50:18.490Z,109.53
2023-09-24T16:52:45.118Z,80.22
2023-09-24T16:55:14.534Z,85.15
2023-09-24T16:57:41.226Z,61.10
2023-09-24T17:00:12.077Z,64.00
2023-09-24T17:02:38.992Z,55.08
2023-09-24T17:05:06.281Z,61.25
2023-09-24T17:07:32.950Z,46.85
2023-09-24T17:10:04.240Z,46.85
2023-09-24T17:12:33.561Z,38.47
2023-09-24T17:15:00.433Z,38.22
2023-09-24T17:17:37.019Z,27.40
2023-09-24T17:20:05.565Z,20.48
2023-09-24T17:22:32.417Z,20.17
2023-09-24T17:25:02.494Z,21.30
2023-09-24T17:27:31.461Z,14.60
2023-09-24T17:29:58.370Z,14.40
2023-09-24T17:34:51.945Z,11.98
2023-09-24T17:37:18.572Z,21.47
2023-09-24T17:39:45.201Z,19.85
2023-09-24T17:42:11.883Z,17.92
2023-09-24T17:44:38.539Z,17.42
2023-09-24T17:47:05.287Z,18.85
2023-09-24T17:49:31.934Z,19.33
2023-09-24T17:52:01.542Z,15.95
2023-09-24T17:54:28.395Z,13.80
2023-09-24T17:56:57.289Z,17.17
2023-09-24T17:59:24.066Z,17.27
2023-09-24T18:01:52.816Z,17.37
2023-09-24T18:04:19.634Z,14.13
2023-09-24T18:06:46.570Z,17.65
2023-09-24T18:09:15.552Z,12.90
2023-09-24T18:11:44.418Z,14.40
2023-09-24T18:14:11.070Z,14.27
2023-09-24T18:16:40.021Z,16.25
2023-09-24T18:19:08.904Z,13.50
2023-09-24T18:21:38.115Z,15.80
2023-09-24T18:24:05.128Z,18.20
2023-09-24T18:26:31.825Z,15.40
2023-09-24T18:28:58.745Z,13.20
2023-09-24T18:31:25.514Z,12.85
2023-09-24T18:33:52.438Z,14.73
2023-09-24T18:36:19.297Z,12.63
2023-09-24T18:38:46.058Z,13.93
2023-09-24T18:41:14.127Z,12.73
2023-09-24T18:43:43.111Z,13.88
2023-09-24T18:46:09.811Z,12.95
2023-09-24T18:48:37.425Z,14.35
2023-09-24T18:51:17.241Z,14.57
2023-09-24T18:53:43.914Z,14.23
2023-09-24T18:56:10.556Z,13.77
2023-09-24T18:58:37.379Z,13.82
2023-09-24T19:01:08.504Z,10.95
2023-09-24T19:06:13.344Z,9.13
2023-09-24T19:08:40.137Z,13.00
2023-09-24T19:11:11.060Z,10.45
2023-09-24T19:13:37.760Z,10.45
2023-09-24T19:16:06.531Z,10.37
2023-09-24T19:18:34.406Z,11.00
2023-09-24T19:21:03.787Z,12.02
2023-09-24T19:23:32.317Z,9.90
2023-09-24T19:26:10.038Z,12.52
2023-09-24T19:28:36.918Z,9.70
2023-09-24T19:31:10.804Z,12.07
2023-09-24T19:33:40.457Z,8.90
2023-09-24T19:36:08.748Z,9.60
2023-09-24T19:38:36.213Z,11.15
2023-09-24T19:41:06.564Z,10.13
2023-09-24T19:43:35.649Z,8.95
2023-09-24T19:46:03.283Z,9.93
2023-09-24T19:48:33.011Z,10.40
2023-09-24T19:51:00.358Z,11.90
2023-09-24T19:53:27.312Z,8.73
2023-09-24T19:55:56.551Z,9.07
2023-09-24T19:58:26.857Z,8.07
2023-09-24T20:00:59.428Z,10.60
2023-09-24T20:03:26.310Z,7.55
2023-09-24T20:05:54.031Z,8.13
2023-09-24T20:08:24.584Z,10.30
2023-09-24T20:10:51.432Z,10.60
2023-09-24T20:13:18.140Z,12.00
2023-09-24T20:15:44.937Z,9.35
2023-09-24T20:18:11.904Z,10.13
2023-09-24T20:20:38.650Z,10.07
2023-09-24T20:23:05.934Z,7.97
2023-09-24T20:25:41.367Z,10.07
2023-09-24T20:28:08.041Z,8.70
2023-09-24T20:30:34.892Z,9.90
2023-09-24T20:33:10.087Z,9.50
2023-09-24T20:35:46.749Z,8.13
2023-09-24T20:38:15.624Z,9.88
2023-09-24T20:40:43.301Z,9.07
2023-09-24T20:43:13.224Z,7.97
2023-09-24T20:45:56.108Z,9.60
2023-09-24T20:48:22.962Z,7.57
2023-09-24T20:50:49.654Z,8.85
2023-09-24T20:53:16.346Z,10.38
2023-09-24T20:55:43.036Z,8.37
2023-09-24T20:58:12.326Z,7.53
2023-09-24T21:00:42.301Z,8.60
2023-09-24T21:03:10.314Z,10.38
2023-09-24T21:05:37.232Z,10.02
2023-09-24T21:08:05.871Z,7.83
2023-09-24T21:10:32.546Z,8.27
2023-09-24T21:12:59.192Z,8.45
2023-09-24T21:15:30.762Z,10.30
2023-09-24T21:17:57.467Z,10.98
2023-09-24T21:20:24.827Z,7.10
2023-09-24T21:22:51.499Z,7.97
2023-09-24T21:25:18.869Z,9.07
2023-09-24T21:27:48.306Z,9.38
2023-09-24T21:30:15.285Z,11.85
2023-09-24T21:32:42.046Z,14.20
2023-09-24T21:35:09.008Z,10.23
2023-09-24T21:37:35.676Z,12.10
2023-09-24T21:40:04.982Z,11.93
2023-09-24T21:42:31.707Z,9.35
2023-09-24T21:45:01.859Z,7.87
2023-09-24T21:47:30.618Z,10.60
2023-09-24T21:49:57.281Z,7.50
2023-09-24T21:52:24.009Z,9.43
2023-09-24T21:54:54.170Z,11.82
2023-09-24T21:57:26.755Z,11.23
2023-09-24T21:59:53.475Z,9.77
2023-09-24T22:02:22.586Z,9.57
2023-09-24T22:04:50.340Z,9.38
2023-09-24T22:07:17.060Z,9.18
2023-09-24T22:09:43.737Z,7.87
2023-09-24T22:12:10.425Z,7.55
2023-09-24T22:14:37.036Z,9.25
2023-09-24T22:17:04.432Z,11.35
2023-09-24T22:19:31.061Z,9.90
2023-09-24T22:21:59.890Z,8.10
2023-09-24T22:24:29.074Z,8.00
2023-09-24T22:26:56.026Z,10.02
2023-09-24T22:29:22.700Z,9.10
2023-09-24T22:31:52.617Z,7.43
2023-09-24T22:34:22.277Z,9.03
2023-09-24T22:36:53.709Z,11.45
2023-09-24T22:39:20.467Z,7.72
2023-09-24T22:41:51.232Z,7.28
2023-09-24T22:44:20.814Z,7.72
2023-09-24T22:46:47.485Z,7.87
2023-09-24T22:49:14.709Z,8.40
2023-09-24T22:51:41.360Z,11.23
2023-09-24T22:54:08.092Z,6.80
2023-09-24T22:56:34.753Z,8.73
2023-09-24T22:59:01.438Z,7.27
2023-09-24T23:01:31.844Z,7.50
2023-09-24T23:03:58.550Z,6.80
2023-09-24T23:06:25.289Z,7.22
2023-09-24T23:08:52.114Z,6.82
2023-09-24T23:11:21.105Z,9.60
2023-09-24T23:13:50.203Z,9.57
2023-09-24T23:16:16.848Z,7.40
2023-09-24T23:18:43.568Z,6.70
2023-09-24T23:21:13.691Z,6.35
2023-09-24T23:23:40.380Z,7.47
2023-09-24T23:26:09.229Z,9.88
2023-09-24T23:28:35.967Z,7.68
2023-09-24T23:31:05.206Z,6.80
2023-09-24T23:33:31.995Z,8.43
2023-09-24T23:36:00.123Z,7.00
2023-09-24T23:38:29.450Z,8.10
2023-09-24T23:40:56.555Z,7.43
2023-09-24T23:43:23.423Z,7.38
2023-09-24T23:45:52.422Z,6.90
2023-09-24T23:48:19.132Z,6.23
2023-09-24T23:50:45.999Z,6.82
2023-09-24T23:53:15.841Z,8.25
2023-09-24T23:55:42.607Z,7.75
2023-09-24T23:58:09.262Z,8.65
